Main page
METAR-TAF:

METAR-TAF

Airports :

Bournemouth, England

Bournemouth Airport

latitude: 50-47N, longitude: 001-50W, elevation: 11 m

Current weather observation

The report was made 1 hour and 5 minutes ago, at 22:20 UTC
Wind 7 kt from the West/Southwest
Temperature 17°C
Humidity 88%
Pressure 1012 hPa
Visibility 10 km or more
Broken clouds at a height of 1300 ft

METAR: EGHH 172220Z 24007KT 9999 BKN013 17/15 Q1012

Time: 00:25 (23:25 UTC)

Forecast

The report was made 3 hours and 26 minutes ago, at 19:59 UTC
Forecast valid from 17 at 21 UTC to 18 at 06 UTC
Wind 12 kt from the West/Southwest
Visibility 10 km or more
Broken clouds at a height of 900 ft
Becoming
from 17 at 21 UTC to 17 at 24 UTC
Scattered clouds at a height of 1500 ft

TAF: EGHH 171959Z 1721/1806 24012KT 9999 BKN009 BECMG 1721/1724 SCT015

Weather observations and forecasts of more than 4000 airports (METAR and TAF reports).

The available stations are represented by yellow and red dots on the map.

Hover mouse over dot to see the name of the station.

Then click to see weather observations and forecasts.

To change the map : click on the green buttons with a black cross to zoom in, on the green button with a dash to zoom out, or on the green arrows for adjacent maps.


METAR-TAF: